Time;durP1;ratioP1;P1;durP2;ratioP2;P2;SDS_P1;SDS_P2;PMS_P1;PMS_P2;Temp;Humidity;BMP_temperature;BMP_pressure;BME280_temperature;BME280_humidity;BME280_pressure;Samples;Min_cycle;Max_cycle;Signal;HPM_P1;HPM_P2
2023/05/30 00:00:54;;;;;;;;;;;;;;;-144.99;88.89;52211.66;5106875;28;19935;-70
2023/05/30 00:03:22;;;;;;;;;;;;;;;-144.99;88.92;52236.13;5096747;28;19928;-70
2023/05/30 00:05:49;;;;;;;;;;;;;;;-144.99;90.04;52213.69;5103006;28;19934;-70
2023/05/30 00:08:15;;;;;;;;;;;;;;;-144.99;92.47;52248.34;5102074;28;20000;-72
2023/05/30 00:10:42;;;;;;;;;;;;;;;-144.99;90.44;52232.03;5093779;28;20472;-71
2023/05/30 00:13:09;;;;;;;;;;;;;;;-144.99;89.76;52260.56;5100047;28;19928;-69
2023/05/30 00:15:36;;;;;;;;;;;;;;;-144.99;89.50;52250.38;5096935;28;19931;-71
2023/05/30 00:18:02;;;;;;;;;;;;;;;-144.99;89.65;52244.28;5087779;28;19928;-72
2023/05/30 00:20:30;;;;;;;;;;;;;;;-144.99;89.45;52258.53;5096177;28;19934;-70
2023/05/30 00:22:58;;;;;;;;;;;;;;;-144.99;91.95;52246.31;5104498;28;20471;-70
2023/05/30 00:25:25;;;;;;;;;;;;;;;-144.99;91.58;52240.19;5099782;28;19928;-70
2023/05/30 00:27:52;;;;;;;;;;;;;;;-144.99;91.70;52246.31;5097518;28;19950;-71
2023/05/30 00:30:18;;;;;;;;;;;;;;;-144.99;90.18;52252.44;5109827;28;19925;-71
2023/05/30 00:32:45;;;;;;;;;;;;;;;-144.99;90.21;52256.50;5103981;28;19996;-73
2023/05/30 00:35:12;;;;;;;;;;;;;;;-144.99;90.22;52230.00;5110502;28;19931;-74
2023/05/30 00:37:40;;;;;;;;;;;;;;;-144.99;92.71;52280.97;5103965;28;19930;-71
2023/05/30 00:40:08;;;;;;;;;;;;;;;-144.99;93.56;52276.88;5109097;28;19939;-71
2023/05/30 00:42:34;;;;;;;;;;;;;;;-144.99;93.94;52293.19;5108708;28;19970;-71
2023/05/30 00:45:01;;;;;;;;;;;;;;;-144.99;93.61;52248.34;5094741;28;19924;-70
2023/05/30 00:47:28;;;;;;;;;;;;;;;-144.99;92.84;52246.31;5103924;28;19931;-70
2023/05/30 00:49:55;;;;;;;;;;;;;;;-144.99;91.20;52244.28;5110362;28;19983;-71
2023/05/30 00:52:22;;;;;;;;;;;;;;;-144.99;90.94;52215.75;5101842;28;19934;-71
2023/05/30 00:54:51;;;;;;;;;;;;;;;-144.99;90.75;52252.44;5109670;28;20310;-70
2023/05/30 00:57:18;;;;;;;;;;;;;;;-144.99;90.67;52244.28;5095327;28;19932;-72
2023/05/30 00:59:45;;;;;;;;;;;;;;;-144.99;92.94;52256.50;5100978;28;20429;-69
2023/05/30 01:02:11;;;;;;;;;;;;;;;-144.99;93.85;52256.50;5097491;28;19930;-68
2023/05/30 01:04:38;;;;;;;;;;;;;;;-144.99;94.12;52285.03;5092466;28;19934;-70
2023/05/30 01:07:06;;;;;;;;;;;;;;;-144.99;94.38;52232.03;5091217;28;19932;-70
2023/05/30 01:09:32;;;;;;;;;;;;;;;-144.99;94.66;52213.69;5094784;28;20015;-70
2023/05/30 01:12:03;;;;;;;;;;;;;;;-144.99;92.96;52223.88;5092589;28;19924;-73
2023/05/30 01:14:33;;;;;;;;;;;;;;;-144.99;94.18;52248.34;5090429;28;20020;-73
2023/05/30 01:17:02;;;;;;;;;;;;;;;-144.99;91.65;52248.34;5092133;28;20006;-75
2023/05/30 01:19:45;;;;;;;;;;;;;;;-144.99;93.52;52256.50;5091499;28;20018;-74
2023/05/30 01:22:16;;;;;;;;;;;;;;;-144.99;94.35;52256.50;5092749;28;20022;-73
2023/05/30 01:24:46;;;;;;;;;;;;;;;-144.99;92.79;52232.03;5096522;28;19932;-74
2023/05/30 01:27:26;;;;;;;;;;;;;;;-144.99;94.45;52236.13;5091082;28;19994;-70
2023/05/30 01:29:55;;;;;;;;;;;;;;;-144.99;94.50;52232.03;5090779;28;19924;-71
2023/05/30 01:32:23;;;;;;;;;;;;;;;-144.99;92.26;52195.34;5095071;27;19981;-71
2023/05/30 01:34:50;;;;;;;;;;;;;;;-144.99;93.42;52268.72;5096320;28;19928;-71
2023/05/30 01:37:16;;;;;;;;;;;;;;;-144.99;91.96;52250.38;5093845;28;19924;-71
2023/05/30 01:39:43;;;;;;;;;;;;;;;-144.99;91.55;52201.47;5088104;28;19932;-71
2023/05/30 01:42:16;;;;;;;;;;;;;;;-144.99;91.39;52227.97;5091128;28;20292;-72
2023/05/30 01:44:50;;;;;;;;;;;;;;;-144.99;91.37;52227.97;5089483;28;19928;-70
2023/05/30 01:47:23;;;;;;;;;;;;;;;-144.99;91.55;52244.28;5090118;28;19924;-71
2023/05/30 01:49:55;;;;;;;;;;;;;;;-144.99;91.44;52248.34;5090368;28;20403;-71
2023/05/30 01:52:23;;;;;;;;;;;;;;;-144.99;91.54;52211.66;5091639;28;19924;-70
2023/05/30 01:54:52;;;;;;;;;;;;;;;-144.99;91.64;52266.69;5089588;28;19935;-69
2023/05/30 01:57:20;;;;;;;;;;;;;;;-144.99;91.98;52195.34;5091104;28;19934;-70
2023/05/30 01:59:48;;;;;;;;;;;;;;;-144.99;93.62;52215.75;5090482;28;20023;-70
2023/05/30 02:02:14;;;;;;;;;;;;;;;-144.99;93.04;52248.34;5105331;28;19924;-71
2023/05/30 02:04:42;;;;;;;;;;;;;;;-144.99;92.06;52256.50;5095422;28;19928;-70
2023/05/30 02:07:10;;;;;;;;;;;;;;;-144.99;94.55;52256.50;5094231;28;19949;-71
2023/05/30 02:09:37;;;;;;;;;;;;;;;-144.99;95.34;52238.16;5090195;28;19989;-70
2023/05/30 02:12:04;;;;;;;;;;;;;;;-144.99;95.42;52272.81;5089273;28;19963;-67
2023/05/30 02:14:31;;;;;;;;;;;;;;;-144.99;95.54;52256.50;5093839;28;20041;-66
2023/05/30 02:16:59;;;;;;;;;;;;;;;-144.99;95.11;52223.88;5088909;28;19939;-66
2023/05/30 02:19:25;;;;;;;;;;;;;;;-144.99;92.13;52209.63;5093977;28;20309;-67
2023/05/30 02:21:54;;;;;;;;;;;;;;;-144.99;91.65;52227.97;5095661;28;19930;-65
2023/05/30 02:24:21;;;;;;;;;;;;;;;-144.99;91.40;52215.75;5110297;28;19927;-67
2023/05/30 02:26:47;;;;;;;;;;;;;;;-144.99;91.17;52240.19;5104524;28;19956;-67
2023/05/30 02:29:14;;;;;;;;;;;;;;;-144.99;93.23;52266.69;5111715;28;19931;-68
2023/05/30 02:31:41;;;;;;;;;;;;;;;-144.99;94.73;52301.34;5098874;28;20006;-69
2023/05/30 02:34:08;;;;;;;;;;;;;;;-144.99;92.56;52211.66;5104481;28;19928;-68
2023/05/30 02:36:38;;;;;;;;;;;;;;;-144.99;91.73;52248.34;5102014;28;19991;-68
2023/05/30 02:39:07;;;;;;;;;;;;;;;-144.99;91.56;52252.44;5096840;28;19950;-68
2023/05/30 02:41:36;;;;;;;;;;;;;;;-144.99;91.51;52227.97;5095656;28;19976;-68
2023/05/30 02:44:03;;;;;;;;;;;;;;;-144.99;91.56;52227.97;5095029;28;19930;-68
2023/05/30 02:46:30;;;;;;;;;;;;;;;-144.99;91.30;52244.28;5099938;28;19924;-68
2023/05/30 02:48:57;;;;;;;;;;;;;;;-144.99;91.21;52215.75;5109826;28;19967;-71
2023/05/30 02:51:23;;;;;;;;;;;;;;;-144.99;91.08;52260.56;5111635;28;19954;-71
2023/05/30 02:53:50;;;;;;;;;;;;;;;-144.99;90.98;52230.00;5115694;28;19923;-71
2023/05/30 02:56:18;;;;;;;;;;;;;;;-144.99;90.88;52240.19;5099377;28;19959;-72
2023/05/30 02:58:45;;;;;;;;;;;;;;;-144.99;90.95;52272.81;5092193;28;19961;-70
2023/05/30 03:01:12;;;;;;;;;;;;;;;-144.99;91.00;52285.03;5091493;28;20399;-72
2023/05/30 03:03:41;;;;;;;;;;;;;;;-144.99;91.16;52244.28;5094879;28;19930;-71
2023/05/30 03:06:08;;;;;;;;;;;;;;;-144.99;91.10;52244.28;5091413;28;20424;-71
2023/05/30 03:08:36;;;;;;;;;;;;;;;-144.99;91.39;52236.13;5091150;28;20044;-73
2023/05/30 03:11:03;;;;;;;;;;;;;;;-144.99;91.42;52260.56;5091366;28;20280;-72
2023/05/30 03:13:31;;;;;;;;;;;;;;;-144.99;91.35;52223.88;5088688;28;20006;-74
2023/05/30 03:15:57;;;;;;;;;;;;;;;-144.99;91.21;52252.44;5088288;28;19927;-74
2023/05/30 03:18:24;;;;;;;;;;;;;;;-144.99;91.23;52219.81;5090057;28;19940;-71
2023/05/30 03:20:51;;;;;;;;;;;;;;;-144.99;91.19;52227.97;5091706;28;19934;-71
2023/05/30 03:23:18;;;;;;;;;;;;;;;-144.99;91.23;52230.00;5089035;28;20373;-71
2023/05/30 03:25:44;;;;;;;;;;;;;;;-144.99;91.02;52207.59;5088047;28;19932;-70
2023/05/30 03:28:11;;;;;;;;;;;;;;;-144.99;91.08;52244.28;5091830;28;19971;-69
2023/05/30 03:30:39;;;;;;;;;;;;;;;-144.99;91.02;52236.13;5091780;28;20066;-70
2023/05/30 03:33:06;;;;;;;;;;;;;;;-144.99;90.91;52240.19;5087499;28;20324;-70
2023/05/30 03:35:32;;;;;;;;;;;;;;;-144.99;90.90;52227.97;5102289;28;19952;-71
2023/05/30 03:37:59;;;;;;;;;;;;;;;-144.99;90.96;52205.53;5105817;28;19994;-70
2023/05/30 03:40:26;;;;;;;;;;;;;;;-144.99;90.98;52211.66;5098792;28;19927;-71
2023/05/30 03:42:53;;;;;;;;;;;;;;;-144.99;90.93;52195.34;5088281;28;20027;-71
2023/05/30 03:45:19;;;;;;;;;;;;;;;-144.99;90.93;52232.03;5089084;28;20379;-70
2023/05/30 03:47:48;;;;;;;;;;;;;;;-144.99;91.10;52199.44;5085608;28;19951;-70
2023/05/30 03:50:14;;;;;;;;;;;;;;;-144.99;90.75;52209.63;5087855;28;19939;-70
2023/05/30 03:52:41;;;;;;;;;;;;;;;-144.99;90.68;52215.75;5088132;28;19928;-71
2023/05/30 03:55:08;;;;;;;;;;;;;;;-144.99;90.51;52227.97;5088613;28;19932;-70
2023/05/30 03:57:35;;;;;;;;;;;;;;;-144.99;90.77;52207.59;5089570;28;19924;-71
2023/05/30 04:00:02;;;;;;;;;;;;;;;-144.99;91.18;52244.28;5100968;28;20116;-70
2023/05/30 04:02:28;;;;;;;;;;;;;;;-144.99;91.04;52211.66;5092491;28;19993;-70
2023/05/30 04:04:57;;;;;;;;;;;;;;;-144.99;91.32;52207.59;5101483;28;20314;-70
2023/05/30 04:07:24;;;;;;;;;;;;;;;-144.99;91.39;52187.19;5103008;28;19928;-70
2023/05/30 04:09:51;;;;;;;;;;;;;;;-144.99;91.51;52195.34;5095473;28;19924;-70
2023/05/30 04:12:18;;;;;;;;;;;;;;;-144.99;91.81;52232.03;5098174;28;19938;-71
2023/05/30 04:14:44;;;;;;;;;;;;;;;-144.99;95.27;52211.66;5097659;28;19932;-70
2023/05/30 04:17:11;;;;;;;;;;;;;;;-144.99;93.82;52238.16;5090953;28;20038;-70
2023/05/30 04:19:38;;;;;;;;;;;;;;;-144.99;92.24;52215.75;5096314;28;19934;-70
2023/05/30 04:22:07;;;;;;;;;;;;;;;-144.99;91.89;52266.69;5100151;28;20369;-71
2023/05/30 04:24:34;;;;;;;;;;;;;;;-144.99;91.40;52203.50;5107652;28;19924;-68
2023/05/30 04:27:02;;;;;;;;;;;;;;;-144.99;91.40;52207.59;5101372;28;19923;-67
2023/05/30 04:29:28;;;;;;;;;;;;;;;-144.99;91.57;52219.81;5102878;28;19928;-71
2023/05/30 04:31:56;;;;;;;;;;;;;;;-144.99;91.53;52223.88;5099335;28;20298;-72
2023/05/30 04:34:24;;;;;;;;;;;;;;;-144.99;91.70;52207.59;5098709;28;19931;-73
2023/05/30 04:36:53;;;;;;;;;;;;;;;-144.99;91.74;52219.81;5093301;28;19966;-72
2023/05/30 04:39:23;;;;;;;;;;;;;;;-144.99;91.33;52179.06;5103872;28;19947;-72
2023/05/30 04:41:49;;;;;;;;;;;;;;;-144.99;91.39;52207.59;5097000;28;20335;-72
2023/05/30 04:44:18;;;;;;;;;;;;;;;-144.99;91.20;52227.97;5097577;28;19928;-72
2023/05/30 04:46:46;;;;;;;;;;;;;;;-144.99;91.07;52227.97;5093571;28;20347;-72
2023/05/30 04:49:13;;;;;;;;;;;;;;;-144.99;90.94;52199.44;5098807;28;19931;-72
2023/05/30 04:51:40;;;;;;;;;;;;;;;-144.99;91.25;52195.34;5099414;28;20007;-71
2023/05/30 04:54:07;;;;;;;;;;;;;;;-144.99;91.22;52195.34;5096123;28;20432;-71
2023/05/30 04:56:35;;;;;;;;;;;;;;;-144.99;92.60;52203.50;5096736;28;19968;-71
2023/05/30 04:59:02;;;;;;;;;;;;;;;-144.99;91.58;52207.59;5091074;28;19928;-72
2023/05/30 05:01:29;;;;;;;;;;;;;;;-144.99;91.72;52203.50;5091358;28;20010;-72
2023/05/30 05:03:56;;;;;;;;;;;;;;;-144.99;91.39;52240.19;5094278;28;20363;-72
2023/05/30 05:06:22;;;;;;;;;;;;;;;-144.99;90.69;52195.34;5092583;28;19935;-68
2023/05/30 05:08:49;;;;;;;;;;;;;;;-144.99;90.40;52174.97;5092973;28;19930;-72
2023/05/30 05:11:16;;;;;;;;;;;;;;;-144.99;90.49;52232.03;5094304;28;20334;-72
2023/05/30 05:13:44;;;;;;;;;;;;;;;-144.99;89.69;52195.34;5091810;28;20020;-72
2023/05/30 05:16:11;;;;;;;;;;;;;;;-144.99;89.73;52211.66;5087846;28;19935;-72
2023/05/30 05:18:37;;;;;;;;;;;;;;;-144.99;89.63;52170.91;5090178;28;19928;-71
2023/05/30 05:21:06;;;;;;;;;;;;;;;-144.99;89.69;52219.81;5089138;28;19932;-73
2023/05/30 05:23:33;;;;;;;;;;;;;;;-144.99;89.70;52177.00;5103326;28;19947;-72
2023/05/30 05:26:01;;;;;;;;;;;;;;;-144.99;89.65;52221.84;4406019;28;10000723;-72
2023/05/30 05:28:27;;;;;;;;;;;;;;;-144.99;89.90;52215.75;5115252;27;19927;-72
2023/05/30 05:30:56;;;;;;;;;;;;;;;-144.99;89.46;52174.97;5090283;28;19985;-72
2023/05/30 05:33:24;;;;;;;;;;;;;;;-144.99;89.20;52195.34;5091807;28;22186;-71
2023/05/30 05:35:51;;;;;;;;;;;;;;;-144.99;89.02;52221.84;5098375;28;19931;-74
2023/05/30 05:38:18;;;;;;;;;;;;;;;-144.99;88.79;52227.97;5090258;28;19932;-74
2023/05/30 05:40:45;;;;;;;;;;;;;;;-144.99;88.51;52209.63;5105371;27;19928;-74
2023/05/30 05:43:11;;;;;;;;;;;;;;;-144.99;88.35;52199.44;5091304;28;20440;-74
2023/05/30 05:45:38;;;;;;;;;;;;;;;-144.99;88.20;52227.97;5101238;28;20331;-74
2023/05/30 05:48:07;;;;;;;;;;;;;;;-144.99;87.86;52170.91;5115203;27;19932;-74
2023/05/30 05:50:33;;;;;;;;;;;;;;;-144.99;87.76;52219.81;5106510;28;19927;-74
2023/05/30 05:53:00;;;;;;;;;;;;;;;-144.99;87.28;52211.66;5103702;28;19950;-74
2023/05/30 05:55:27;;;;;;;;;;;;;;;-144.99;87.23;52181.09;5092658;28;20403;-74
2023/05/30 05:57:54;;;;;;;;;;;;;;;-144.99;87.35;52179.06;5100764;28;20095;-74
2023/05/30 06:00:21;;;;;;;;;;;;;;;-144.99;87.27;52211.66;5097989;28;20023;-74
2023/05/30 06:02:47;;;;;;;;;;;;;;;-144.99;87.02;52185.16;5093983;28;20212;-74
2023/05/30 06:05:15;;;;;;;;;;;;;;;-144.99;86.44;52183.13;5104725;28;20491;-73
2023/05/30 06:07:42;;;;;;;;;;;;;;;-144.99;86.53;52203.50;5093651;28;19928;-73
2023/05/30 06:10:10;;;;;;;;;;;;;;;-144.99;86.16;52248.34;5101009;28;20030;-74
2023/05/30 06:12:36;;;;;;;;;;;;;;;-144.99;86.32;52191.28;5087720;28;20328;-73
2023/05/30 06:15:03;;;;;;;;;;;;;;;-144.99;88.08;52197.41;5093118;28;20381;-73
2023/05/30 06:17:30;;;;;;;;;;;;;;;-144.99;88.79;52187.19;5092402;28;20349;-73
2023/05/30 06:19:57;;;;;;;;;;;;;;;-144.99;88.02;52215.75;5096445;28;20022;-73
2023/05/30 06:22:25;;;;;;;;;;;;;;;-144.99;87.54;52183.13;5088566;28;19928;-74
2023/05/30 06:24:52;;;;;;;;;;;;;;;-144.99;87.29;52170.91;5087989;28;20051;-74
2023/05/30 06:27:19;;;;;;;;;;;;;;;-144.99;87.23;52211.66;5098534;28;19928;-73
2023/05/30 06:29:45;;;;;;;;;;;;;;;-144.99;86.93;52195.34;5105964;28;20287;-74
2023/05/30 06:32:12;;;;;;;;;;;;;;;-144.99;87.11;52183.13;5096261;28;20004;-73
2023/05/30 06:34:39;;;;;;;;;;;;;;;-144.99;87.11;52215.75;5105661;28;19949;-74
2023/05/30 06:37:06;;;;;;;;;;;;;;;-144.99;88.21;52219.81;5096518;28;19935;-74
2023/05/30 06:39:35;;;;;;;;;;;;;;;-144.99;87.21;52193.31;5089255;28;20380;-74
2023/05/30 06:42:02;;;;;;;;;;;;;;;-144.99;87.28;52232.03;5099817;28;19950;-74
2023/05/30 06:44:29;;;;;;;;;;;;;;;-144.99;87.14;52211.66;5096516;28;20035;-73
2023/05/30 06:46:56;;;;;;;;;;;;;;;-144.99;86.94;52209.63;5095098;28;19927;-73
2023/05/30 06:49:23;;;;;;;;;;;;;;;-144.99;86.97;52211.66;5088408;28;20023;-73
2023/05/30 06:51:50;;;;;;;;;;;;;;;-144.99;86.76;52205.53;5089727;28;19924;-73
2023/05/30 06:54:17;;;;;;;;;;;;;;;-144.99;86.65;52219.81;4740055;28;9999640;-73
2023/05/30 06:56:48;;;;;;;;;;;;;;;-144.99;86.60;52179.06;5093110;28;20041;-73
2023/05/30 06:59:14;;;;;;;;;;;;;;;-144.99;86.35;52187.19;5099895;28;19988;-73
2023/05/30 07:01:41;;;;;;;;;;;;;;;-144.99;86.08;52174.97;5093618;28;19935;-73
2023/05/30 07:04:08;;;;;;;;;;;;;;;-144.99;85.69;52203.50;5094464;28;19932;-73
2023/05/30 07:06:35;;;;;;;;;;;;;;;-144.99;85.61;52215.75;5089743;28;19985;-73
2023/05/30 07:09:02;;;;;;;;;;;;;;;-144.99;85.54;52183.13;5099963;28;19924;-74
2023/05/30 07:11:29;;;;;;;;;;;;;;;-144.99;85.63;52170.91;5096360;28;20027;-73
2023/05/30 07:13:57;;;;;;;;;;;;;;;-144.99;85.27;52207.59;5099312;28;20542;-73
2023/05/30 07:16:24;;;;;;;;;;;;;;;-144.99;85.08;52199.44;5087573;28;20504;-73
2023/05/30 07:18:51;;;;;;;;;;;;;;;-144.99;84.97;52179.06;5103414;28;19928;-73
2023/05/30 07:21:17;;;;;;;;;;;;;;;-144.99;84.84;52207.59;5090746;28;20009;-73
2023/05/30 07:23:44;;;;;;;;;;;;;;;-144.99;84.80;52174.97;5087355;28;19928;-73
2023/05/30 07:26:11;;;;;;;;;;;;;;;-144.99;84.65;52195.34;5088343;28;20378;-73
2023/05/30 07:28:37;;;;;;;;;;;;;;;-144.99;84.55;52195.34;5102852;28;19923;-73
2023/05/30 07:31:06;;;;;;;;;;;;;;;-144.99;84.56;52195.34;5103503;28;19928;-73
2023/05/30 07:33:32;;;;;;;;;;;;;;;-144.99;84.35;52197.41;5103219;28;19964;-74
2023/05/30 07:35:59;;;;;;;;;;;;;;;-144.99;84.47;52183.13;5114452;28;20482;-74
2023/05/30 07:38:26;;;;;;;;;;;;;;;-144.99;84.22;52170.91;5110420;28;19934;-74
2023/05/30 07:40:52;;;;;;;;;;;;;;;-144.99;84.17;52187.19;5102209;28;20401;-74
2023/05/30 07:43:19;;;;;;;;;;;;;;;-144.99;84.10;52213.69;5102908;28;19972;-74
2023/05/30 07:45:46;;;;;;;;;;;;;;;-144.99;83.87;52183.13;5103916;28;20403;-75
2023/05/30 07:48:14;;;;;;;;;;;;;;;-144.99;83.55;52170.91;5100336;28;19928;-75
2023/05/30 07:50:41;;;;;;;;;;;;;;;-144.99;83.29;52168.84;5109984;27;20428;-75
2023/05/30 07:53:08;;;;;;;;;;;;;;;-144.99;82.94;52170.91;5098891;28;20391;-75
2023/05/30 07:55:34;;;;;;;;;;;;;;;-144.99;83.15;52191.28;5108916;28;19987;-75
2023/05/30 07:58:01;;;;;;;;;;;;;;;-144.99;82.72;52193.31;5115008;28;19943;-75
2023/05/30 08:00:29;;;;;;;;;;;;;;;-144.99;82.80;52170.91;5115272;28;19992;-74
2023/05/30 08:02:55;;;;;;;;;;;;;;;-144.99;82.68;52164.78;5116923;28;19925;-73
2023/05/30 08:05:23;;;;;;;;;;;;;;;-144.99;82.62;52191.28;5115285;28;19916;-73
2023/05/30 08:07:51;;;;;;;;;;;;;;;-144.99;82.76;52215.75;5107795;28;20392;-73
2023/05/30 08:10:17;;;;;;;;;;;;;;;-144.99;82.96;52240.19;5098845;28;19924;-73
2023/05/30 08:12:44;;;;;;;;;;;;;;;-144.99;82.97;52223.88;5122677;28;20031;-73
2023/05/30 08:15:11;;;;;;;;;;;;;;;-144.99;82.67;52166.81;5121855;28;19944;-73
2023/05/30 08:17:37;;;;;;;;;;;;;;;-144.99;82.95;52207.59;5123153;27;20013;-73
2023/05/30 08:20:05;;;;;;;;;;;;;;;-144.99;82.93;52179.06;5114634;28;19928;-74
2023/05/30 08:22:33;;;;;;;;;;;;;;;-144.99;82.66;52183.13;5111556;28;19932;-73
2023/05/30 08:25:00;;;;;;;;;;;;;;;-144.99;82.78;52179.06;5113087;28;19949;-73
2023/05/30 08:27:27;;;;;;;;;;;;;;;-144.99;82.38;52203.50;5109453;28;19928;-74
2023/05/30 08:29:54;;;;;;;;;;;;;;;-144.99;82.76;52199.44;5102985;28;19928;-74
2023/05/30 08:32:22;;;;;;;;;;;;;;;-144.99;82.56;52219.81;5105264;28;19932;-74
2023/05/30 08:34:48;;;;;;;;;;;;;;;-144.99;82.29;52187.19;5101191;28;19924;-74
2023/05/30 08:37:15;;;;;;;;;;;;;;;-144.99;82.30;52181.09;5108265;28;19927;-74
2023/05/30 08:39:43;;;;;;;;;;;;;;;-144.99;82.32;52185.16;5100544;28;20435;-74
2023/05/30 08:42:12;;;;;;;;;;;;;;;-144.99;82.30;52193.31;5106103;28;20153;-74
2023/05/30 08:44:39;;;;;;;;;;;;;;;-144.99;82.04;52187.19;5109543;28;19967;-73
2023/05/30 08:47:07;;;;;;;;;;;;;;;-144.99;82.46;52170.91;5099568;28;20385;-73
2023/05/30 08:49:35;;;;;;;;;;;;;;;-144.99;82.19;52211.66;5100515;28;20003;-73
2023/05/30 08:52:03;;;;;;;;;;;;;;;-144.99;81.79;52215.75;5097064;28;20451;-74
2023/05/30 08:54:30;;;;;;;;;;;;;;;-144.99;82.04;52170.91;5105242;28;20157;-74
2023/05/30 08:57:01;;;;;;;;;;;;;;;-144.99;81.72;52191.28;5098557;28;20259;-73
2023/05/30 08:59:28;;;;;;;;;;;;;;;-144.99;83.01;52203.50;5092938;28;19932;-73
2023/05/30 09:01:56;;;;;;;;;;;;;;;-144.99;81.74;52211.66;5094134;28;19935;-74
2023/05/30 09:04:23;;;;;;;;;;;;;;;-144.99;81.31;52207.59;5103879;28;20010;-74
2023/05/30 09:06:50;;;;;;;;;;;;;;;-144.99;80.91;52170.91;5094556;28;19928;-74
2023/05/30 09:09:18;;;;;;;;;;;;;;;-144.99;80.80;52158.66;5103238;28;19928;-74
2023/05/30 09:11:44;;;;;;;;;;;;;;;-144.99;81.00;52177.00;5104610;28;19946;-73
2023/05/30 09:14:12;;;;;;;;;;;;;;;-144.99;81.03;52148.47;5098378;28;20090;-74
2023/05/30 09:16:39;;;;;;;;;;;;;;;-144.99;80.77;52174.97;5094957;28;19938;-73
2023/05/30 09:19:07;;;;;;;;;;;;;;;-144.99;80.59;52158.66;5099663;28;20000;-73
2023/05/30 09:21:34;;;;;;;;;;;;;;;-144.99;80.50;52179.06;5100670;28;19935;-73
2023/05/30 09:24:05;;;;;;;;;;;;;;;-144.99;80.45;52162.75;5094604;28;19967;-73
2023/05/30 09:26:32;;;;;;;;;;;;;;;-144.99;80.24;52179.06;5089382;28;19935;-74
2023/05/30 09:29:02;;;;;;;;;;;;;;;-144.99;79.98;52162.75;5088179;28;19925;-72
2023/05/30 09:31:31;;;;;;;;;;;;;;;-144.99;80.15;52168.84;5088417;28;19924;-72
2023/05/30 09:33:58;;;;;;;;;;;;;;;-144.99;79.72;52168.84;5089021;28;19935;-73
2023/05/30 09:36:26;;;;;;;;;;;;;;;-144.99;80.02;52170.91;5101311;28;20030;-73
2023/05/30 09:38:54;;;;;;;;;;;;;;;-144.99;79.65;52170.91;5092385;28;20297;-72
2023/05/30 09:41:21;;;;;;;;;;;;;;;-144.99;79.46;52191.28;5092269;28;19928;-73
2023/05/30 09:43:53;;;;;;;;;;;;;;;-144.99;79.63;52166.81;5093381;28;20401;-73
2023/05/30 09:46:20;;;;;;;;;;;;;;;-144.99;79.39;52174.97;5087862;28;19928;-73
2023/05/30 09:48:49;;;;;;;;;;;;;;;-144.99;79.49;52193.31;5094662;28;19927;-73
2023/05/30 09:51:16;;;;;;;;;;;;;;;-144.99;79.53;52146.44;5089661;28;20022;-73
2023/05/30 09:53:54;;;;;;;;;;;;;;;-144.99;79.39;52179.06;5092320;28;19954;-73
2023/05/30 09:56:21;;;;;;;;;;;;;;;-144.99;79.26;52183.13;5090792;28;19927;-73
2023/05/30 09:58:48;;;;;;;;;;;;;;;-144.99;78.88;52154.59;5092301;28;19931;-74
2023/05/30 10:01:16;;;;;;;;;;;;;;;-144.99;78.80;52142.38;5101532;28;19925;-74
2023/05/30 10:03:44;;;;;;;;;;;;;;;-144.99;78.18;52174.97;5101305;28;20288;-73
2023/05/30 10:06:16;;;;;;;;;;;;;;;-144.99;78.17;52164.78;5093407;28;19928;-73
2023/05/30 10:08:44;;;;;;;;;;;;;;;-144.99;78.01;52162.75;5096873;28;20453;-73
2023/05/30 10:11:11;;;;;;;;;;;;;;;-144.99;77.92;52154.59;5096856;28;20342;-73
2023/05/30 10:13:38;;;;;;;;;;;;;;;-144.99;77.97;52195.34;5093391;28;20462;-73
2023/05/30 10:16:05;;;;;;;;;;;;;;;-144.99;77.93;52215.75;5089056;28;19939;-74
2023/05/30 10:18:33;;;;;;;;;;;;;;;-144.99;77.68;52181.09;5087857;28;20046;-73
2023/05/30 10:21:00;;;;;;;;;;;;;;;-144.99;77.62;52166.81;5094300;28;20002;-74
2023/05/30 10:23:28;;;;;;;;;;;;;;;-144.99;77.60;52164.78;5101859;28;19928;-74
2023/05/30 10:25:55;;;;;;;;;;;;;;;-144.99;77.69;52142.38;5101765;28;19928;-74
2023/05/30 10:28:28;;;;;;;;;;;;;;;-144.99;77.29;52146.44;5090990;28;19935;-73
2023/05/30 10:30:56;;;;;;;;;;;;;;;-144.99;77.23;52158.66;5087418;28;19924;-74
2023/05/30 10:33:25;;;;;;;;;;;;;;;-144.99;77.36;52174.97;5100251;28;20062;-73
2023/05/30 10:35:53;;;;;;;;;;;;;;;-144.99;77.03;52150.53;5099717;28;20285;-74
2023/05/30 10:38:22;;;;;;;;;;;;;;;-144.99;77.10;52166.81;5096181;28;19932;-74
2023/05/30 10:40:53;;;;;;;;;;;;;;;-144.99;77.24;52170.91;5095038;28;20019;-74
2023/05/30 10:43:26;;;;;;;;;;;;;;;-144.99;77.48;52138.28;5094908;28;20357;-74
2023/05/30 10:45:56;;;;;;;;;;;;;;;-144.99;77.31;52156.63;5090834;28;19938;-74
2023/05/30 10:48:27;;;;;;;;;;;;;;;-144.99;76.93;52166.81;5086214;28;20052;-74
2023/05/30 10:50:57;;;;;;;;;;;;;;;-144.99;76.14;52191.28;5087281;28;19924;-74
2023/05/30 10:53:23;;;;;;;;;;;;;;;-144.99;76.41;52142.38;5095102;28;20377;-74
2023/05/30 10:55:51;;;;;;;;;;;;;;;-144.99;76.48;52183.13;5087002;28;19932;-74
2023/05/30 10:58:35;;;;;;;;;;;;;;;-144.99;76.19;52179.06;5103218;28;20397;-74
2023/05/30 11:01:16;;;;;;;;;;;;;;;-144.99;76.27;52134.22;5092247;28;19932;-74
2023/05/30 11:03:45;;;;;;;;;;;;;;;-144.99;76.15;52174.97;5100677;28;19971;-74
2023/05/30 11:06:12;;;;;;;;;;;;;;;-144.99;75.93;52134.22;5087910;28;19932;-75
2023/05/30 11:08:40;;;;;;;;;;;;;;;-144.99;75.83;52138.28;5084858;28;19954;-73
2023/05/30 11:11:16;;;;;;;;;;;;;;;-144.99;75.84;52154.59;5087103;28;19924;-73
2023/05/30 11:13:44;;;;;;;;;;;;;;;-144.99;75.56;52162.75;5098843;28;19924;-74
2023/05/30 11:16:21;;;;;;;;;;;;;;;-144.99;75.47;52121.97;5087023;28;20360;-73
2023/05/30 11:18:49;;;;;;;;;;;;;;;-144.99;75.57;52170.91;5095962;28;19993;-74
2023/05/30 11:21:16;;;;;;;;;;;;;;;-144.99;76.78;52174.97;5097262;28;20178;-73
2023/05/30 11:23:58;;;;;;;;;;;;;;;-144.99;75.71;52142.38;5085723;28;19927;-74
2023/05/30 11:26:49;;;;;;;;;;;;;;;-144.99;75.35;52142.38;5086257;28;20389;-74
2023/05/30 11:29:32;;;;;;;;;;;;;;;-144.99;74.98;52134.22;5085266;28;19932;-74
2023/05/30 11:31:59;;;;;;;;;;;;;;;-144.99;74.99;52095.50;5090436;28;20050;-74
2023/05/30 11:34:25;;;;;;;;;;;;;;;-144.99;73.90;52109.75;5094991;28;19928;-74
2023/05/30 11:36:52;;;;;;;;;;;;;;;-144.99;73.92;52119.94;5092201;28;20312;-74
2023/05/30 11:39:19;;;;;;;;;;;;;;;-144.99;73.89;52146.44;5092560;28;19928;-74
2023/05/30 11:41:48;;;;;;;;;;;;;;;-144.99;73.84;52126.06;5088275;28;19935;-74
2023/05/30 11:44:15;;;;;;;;;;;;;;;-144.99;73.84;52138.28;5095860;28;20014;-74
2023/05/30 11:46:42;;;;;;;;;;;;;;;-144.99;74.02;52138.28;5086091;28;19939;-74
2023/05/30 11:49:08;;;;;;;;;;;;;;;-144.99;73.79;52154.59;5083696;28;19932;-74
2023/05/30 11:51:38;;;;;;;;;;;;;;;-144.99;74.09;52134.22;5092510;28;20308;-74
2023/05/30 11:54:06;;;;;;;;;;;;;;;-144.99;73.61;52126.06;5098006;28;19931;-74
2023/05/30 11:56:33;;;;;;;;;;;;;;;-144.99;73.60;52126.06;5103350;28;19957;-74
2023/05/30 11:59:01;;;;;;;;;;;;;;;-144.99;73.43;52113.84;5097369;28;19928;-76
2023/05/30 12:01:28;;;;;;;;;;;;;;;-144.99;73.22;52115.88;5098287;28;20049;-74
2023/05/30 12:03:55;;;;;;;;;;;;;;;-144.99;72.84;52121.97;5090045;28;19928;-74
2023/05/30 12:06:22;;;;;;;;;;;;;;;-144.99;72.92;52126.06;5093623;28;19928;-74
2023/05/30 12:08:49;;;;;;;;;;;;;;;-144.99;72.56;52113.84;5088086;28;19928;-75
2023/05/30 12:11:16;;;;;;;;;;;;;;;-144.99;72.39;52158.66;5086907;28;19928;-74
2023/05/30 12:13:43;;;;;;;;;;;;;;;-144.99;72.55;52134.22;5085032;28;20304;-74
2023/05/30 12:16:11;;;;;;;;;;;;;;;-144.99;72.09;52113.84;5094669;28;19932;-74
2023/05/30 12:18:39;;;;;;;;;;;;;;;-144.99;73.25;52136.25;5089621;28;20287;-74
2023/05/30 12:21:06;;;;;;;;;;;;;;;-144.99;73.43;52146.44;5090288;28;19931;-74
2023/05/30 12:23:33;;;;;;;;;;;;;;;-144.99;73.28;52162.75;5088882;28;19928;-75
2023/05/30 12:25:59;;;;;;;;;;;;;;;-144.99;72.57;52113.84;5092628;28;19924;-75
2023/05/30 12:28:26;;;;;;;;;;;;;;;-144.99;73.72;52134.22;5092738;28;19927;-74